Jendouba, Tunisia

12:11 AM CET on September 19, 2014 (GMT +0100)
Jendouba | Change Station
CLOSE
Current Station
Airport
Location: Jendouba,
Elevation: 472 ft
Nearby Weather Stations

Elev 472 ft 36.48 °N, 8.80 °E | Updated 11 minutes ago

Partly Cloudy
Partly Cloudy
82 °F
Feels Like 85 °F
N
4
Wind Variable Wind from NNE

Today
High -- | Low -- °F
--% Chance of Precip.
Yesterday
High -- | Low -- °F
Precip. -- in
6:10 AM 6:26 PM
Waning Crescent, 24% visible
Pressure 29.92 in
Visibility 5.0 miles
Clouds Few 2000 ft
Heat Index 85 °F
Dew Point 66 °F
Humidity 58%
Rainfall 0.00 in
Snow Depth Not available.
UV 0 out of 12
Pollen Not available.
Air Quality Not available.
Flu Activity Not available.
METAR DTTN 182300Z 03003KT 8000 FEW020 28/19 Q1013

More Conditions Fewer Conditions

Pressure 29.92 in
Visibility 5.0 miles
Clouds Few 2000 ft
Heat Index 85 °F
Dew Point 66 °F
Humidity 58%
Rainfall 0.00 in
Snow Depth Not available.
UV 0 out of 12
Pollen Not available.
Air Quality Not available.
Flu Activity Not available.
METAR DTTN 182300Z 03003KT 8000 FEW020 28/19 Q1013

More Conditions Fewer Conditions

10-Day Weather Forecast

Almanac

Astronomy

Sep. 19, 2014 Rise Set
Actual Time 6:10 AM CET 6:26 PM CET
Civil Twilight 5:44 AM CET 6:52 PM CET
Nautical Twilight 5:14 AM CET 7:22 PM CET
Astronomical Twilight 4:43 AM CET 7:53 PM CET
Moon 1:46 AM CET (9/19) 3:40 PM CET (9/19)
Length of Visible Light 13h 08m
Length of Day
12h 16m
Tomorrow will be 2m 18s shorter.
Waning Crescent, 24% of the Moon is Illuminated
Sep 18
Waning Crescent
Sep 24
New
Oct 1
First Quarter
Oct 8
Full
Oct 15
Last Quarter

Yesterday's Extremes

Country Highs Country Lows

Community

WunderPhotos

Upload Photos

1,754,481 photos uploaded!

WunderBlogs® & News

Nearby

Snow Depth

Not available.

Earthquake Activity

City Distance Mag. Time & Date
No recent earthquake activity has been reported nearby.
Minimum magnitude displayed is 2.5.

Coastal Water Temperatures

Place Temperature
No Stations Reporting

Nearby Weather Stations